Time;durP1;ratioP1;P1;durP2;ratioP2;P2;SDS_P1;SDS_P2;PMS_P1;PMS_P2;Temp;Humidity;BMP_temperature;BMP_pressure;BME280_temperature;BME280_humidity;BME280_pressure;Samples;Min_cycle;Max_cycle;Signal;HPM_P1;HPM_P2
2024/03/19 05:00:16;;;;;;;2.58;2.38;;;3.90;99.90;;;;;;5947433;23;20361;-69
2024/03/19 05:02:43;;;;;;;1.33;1.17;;;3.90;99.90;;;;;;4890161;29;20226;-71
2024/03/19 05:05:10;;;;;;;1.38;1.25;;;3.80;99.90;;;;;;4904748;29;20224;-71
2024/03/19 05:07:37;;;;;;;1.50;1.40;;;3.80;99.90;;;;;;4903881;29;20212;-71
2024/03/19 05:10:04;;;;;;;2.15;2.05;;;3.70;99.90;;;;;;4892760;29;20210;-71
2024/03/19 05:12:31;;;;;;;2.10;1.23;;;3.70;99.90;;;;;;4891203;29;20255;-71
2024/03/19 05:14:57;;;;;;;1.15;1.13;;;3.70;99.90;;;;;;4891142;29;20223;-71
2024/03/19 05:17:26;;;;;;;1.00;1.00;;;3.60;99.90;;;;;;4894457;29;20571;-70
2024/03/19 05:19:53;;;;;;;0.77;0.77;;;3.50;99.90;;;;;;4894725;29;20237;-71
2024/03/19 05:22:19;;;;;;;1.15;1.15;;;3.50;99.90;;;;;;4893270;29;20246;-70
2024/03/19 05:24:46;;;;;;;5.20;2.40;;;3.50;99.90;;;;;;4894555;29;20216;-70
2024/03/19 05:27:13;;;;;;;1.40;1.40;;;3.50;99.90;;;;;;4894115;29;20590;-70
2024/03/19 05:29:40;;;;;;;2.13;1.95;;;3.40;99.90;;;;;;4894859;29;20210;-71
2024/03/19 05:32:07;;;;;;;0.73;0.68;;;3.40;99.90;;;;;;4892329;29;20235;-71
2024/03/19 05:34:35;;;;;;;1.73;1.63;;;3.40;99.90;;;;;;4892797;29;20213;-70
2024/03/19 05:37:02;;;;;;;4.43;3.58;;;3.40;99.90;;;;;;4894212;29;20216;-71
2024/03/19 05:39:28;;;;;;;1.67;1.63;;;3.30;99.90;;;;;;4892219;29;20211;-71
2024/03/19 05:41:55;;;;;;;4.13;1.80;;;3.30;99.90;;;;;;4894322;29;20227;-70
2024/03/19 05:44:22;;;;;;;2.88;2.78;;;3.30;99.90;;;;;;4894308;29;20240;-71
2024/03/19 05:46:48;;;;;;;4.30;1.60;;;3.30;99.90;;;;;;4889844;29;20769;-71
2024/03/19 05:49:15;;;;;;;1.13;1.13;;;3.30;99.90;;;;;;4886538;29;20241;-70
2024/03/19 05:51:43;;;;;;;1.35;1.35;;;3.30;99.90;;;;;;4892431;29;20229;-70
2024/03/19 05:54:11;;;;;;;3.78;2.28;;;3.30;99.90;;;;;;4891376;29;20227;-70
2024/03/19 05:56:38;;;;;;;1.20;1.17;;;3.40;99.90;;;;;;4892722;29;20236;-70
2024/03/19 05:59:05;;;;;;;2.40;1.27;;;3.40;99.90;;;;;;4892062;29;20218;-70
2024/03/19 06:01:32;;;;;;;1.10;1.05;;;3.30;99.90;;;;;;4892092;29;20251;-70
2024/03/19 06:04:01;;;;;;;1.02;1.02;;;3.40;99.90;;;;;;4889695;29;20227;-70
2024/03/19 06:06:28;;;;;;;2.92;1.60;;;3.40;99.90;;;;;;4888261;29;20242;-70
2024/03/19 06:08:56;;;;;;;1.05;1.05;;;3.50;99.90;;;;;;4893124;29;20212;-69
2024/03/19 06:11:23;;;;;;;1.30;0.98;;;3.50;99.90;;;;;;4887157;29;20864;-71
2024/03/19 06:13:50;;;;;;;2.58;1.52;;;3.50;99.90;;;;;;4881881;29;20216;-70
2024/03/19 06:16:17;;;;;;;1.38;1.38;;;3.50;99.90;;;;;;4889443;29;20213;-70
2024/03/19 06:18:43;;;;;;;2.67;0.90;;;3.50;99.90;;;;;;4890132;29;20227;-70
2024/03/19 06:21:10;;;;;;;1.02;1.02;;;3.50;99.90;;;;;;4884684;29;20321;-71
2024/03/19 06:23:37;;;;;;;1.95;1.80;;;3.50;99.90;;;;;;4890017;29;21369;-71
2024/03/19 06:26:05;;;;;;;3.05;2.85;;;3.60;99.90;;;;;;4894215;29;20223;-72
2024/03/19 06:28:31;;;;;;;2.90;1.45;;;3.70;99.90;;;;;;4896327;29;20213;-71
2024/03/19 06:30:58;;;;;;;2.05;1.95;;;3.70;99.90;;;;;;4897917;29;20242;-72
2024/03/19 06:33:25;;;;;;;1.85;1.75;;;3.80;99.90;;;;;;4895547;29;20208;-71
2024/03/19 06:35:52;;;;;;;3.13;2.22;;;3.80;99.90;;;;;;4896165;29;20211;-71
2024/03/19 06:38:18;;;;;;;1.75;1.35;;;3.90;99.90;;;;;;4894566;29;20225;-71
2024/03/19 06:40:45;;;;;;;3.08;2.78;;;4.00;99.90;;;;;;4893254;29;20237;-72
2024/03/19 06:43:13;;;;;;;2.05;1.70;;;4.10;99.90;;;;;;4893963;29;20215;-71
2024/03/19 06:45:40;;;;;;;4.10;1.85;;;4.10;99.90;;;;;;4896389;29;20682;-71
2024/03/19 06:48:08;;;;;;;2.22;1.80;;;4.10;99.90;;;;;;4895055;29;20213;-71
2024/03/19 06:50:35;;;;;;;1.73;1.63;;;4.10;99.90;;;;;;4888632;29;20292;-71
2024/03/19 06:53:02;;;;;;;1.67;1.58;;;4.20;99.90;;;;;;4890829;29;20230;-71
2024/03/19 06:55:31;;;;;;;3.03;2.78;;;4.30;99.90;;;;;;4895393;29;20225;-71
2024/03/19 06:57:58;;;;;;;1.90;1.55;;;4.30;99.90;;;;;;4894102;29;20296;-71
2024/03/19 07:00:26;;;;;;;1.35;1.25;;;4.40;99.90;;;;;;4892253;29;20817;-71
2024/03/19 07:02:54;;;;;;;2.13;2.05;;;4.40;99.90;;;;;;4890329;29;20226;-72
2024/03/19 07:05:22;;;;;;;4.22;2.13;;;4.40;99.90;;;;;;4891761;29;20214;-71
2024/03/19 07:07:50;;;;;;;2.25;2.15;;;4.50;99.90;;;;;;4890060;29;20215;-71
2024/03/19 07:10:17;;;;;;;2.25;2.15;;;4.60;99.90;;;;;;4895295;29;20218;-70
2024/03/19 07:12:44;;;;;;;4.43;1.60;;;4.70;99.90;;;;;;4886222;29;20225;-70
2024/03/19 07:15:10;;;;;;;2.00;2.00;;;4.80;99.90;;;;;;4891947;29;20258;-70
2024/03/19 07:17:38;;;;;;;2.53;2.42;;;4.80;99.90;;;;;;4892967;29;20306;-70
2024/03/19 07:20:09;;;;;;;1.60;1.60;;;4.90;99.90;;;;;;4894282;29;20214;-70
2024/03/19 07:22:36;;;;;;;2.40;2.30;;;4.90;99.90;;;;;;4895932;29;20208;-70
2024/03/19 07:25:08;;;;;;;7.30;2.42;;;4.90;99.90;;;;;;4891489;29;20208;-70
2024/03/19 07:27:36;;;;;;;2.55;2.35;;;5.00;99.90;;;;;;4893942;29;20271;-70
2024/03/19 07:30:03;;;;;;;3.25;2.85;;;5.10;99.90;;;;;;4892619;29;20218;-70
2024/03/19 07:32:30;;;;;;;8.45;4.93;;;5.10;99.90;;;;;;4894399;29;20254;-71
2024/03/19 07:34:58;;;;;;;10.48;5.63;;;5.10;99.90;;;;;;4892296;29;20227;-71
2024/03/19 07:37:25;;;;;;;2.05;2.05;;;5.20;99.90;;;;;;4893549;29;20599;-71
2024/03/19 07:39:56;;;;;;;3.10;2.83;;;5.30;99.90;;;;;;4891646;29;20215;-72
2024/03/19 07:42:23;;;;;;;2.75;2.55;;;5.30;99.90;;;;;;4893437;29;20278;-71
2024/03/19 07:44:51;;;;;;;2.85;2.65;;;5.30;99.90;;;;;;4892225;29;20220;-71
2024/03/19 07:47:18;;;;;;;3.53;3.22;;;5.50;99.90;;;;;;4895151;29;20211;-71
2024/03/19 07:49:45;;;;;;;3.47;3.22;;;5.50;99.90;;;;;;4892825;29;20207;-72
2024/03/19 07:52:13;;;;;;;2.55;2.45;;;5.60;99.90;;;;;;4893696;29;20236;-71
2024/03/19 07:54:40;;;;;;;3.30;3.03;;;5.80;99.90;;;;;;4890930;29;20216;-70
2024/03/19 07:57:07;;;;;;;2.63;2.53;;;5.80;99.90;;;;;;4894225;29;20215;-71
2024/03/19 07:59:36;;;;;;;2.20;2.10;;;5.90;99.90;;;;;;4893018;29;20226;-70
2024/03/19 08:02:04;;;;;;;7.25;3.05;;;5.80;99.90;;;;;;4891298;29;20252;-71
2024/03/19 08:04:30;;;;;;;2.55;2.47;;;5.80;99.90;;;;;;4890164;29;20225;-71
2024/03/19 08:06:57;;;;;;;2.30;2.15;;;5.90;99.90;;;;;;4892800;29;20226;-71
2024/03/19 08:09:25;;;;;;;2.40;2.30;;;6.00;99.90;;;;;;4895945;29;20222;-70
2024/03/19 08:11:53;;;;;;;2.50;2.08;;;6.00;99.90;;;;;;4892476;29;20226;-70
2024/03/19 08:14:20;;;;;;;5.18;2.40;;;6.00;99.90;;;;;;4891587;29;20214;-71
2024/03/19 08:16:47;;;;;;;2.17;2.15;;;5.90;99.90;;;;;;4894235;29;20231;-71
2024/03/19 08:19:14;;;;;;;2.50;2.40;;;5.90;99.90;;;;;;4894109;29;20226;-71
2024/03/19 08:21:41;;;;;;;3.22;2.90;;;5.90;99.90;;;;;;4889558;29;20277;-71
2024/03/19 08:24:07;;;;;;;2.60;2.20;;;5.90;99.90;;;;;;4890107;29;20595;-70
2024/03/19 08:26:35;;;;;;;2.70;2.60;;;6.00;99.90;;;;;;4886734;29;20220;-70
2024/03/19 08:29:02;;;;;;;2.90;2.70;;;6.00;99.90;;;;;;4892808;29;20701;-70
2024/03/19 08:31:29;;;;;;;3.17;3.08;;;6.10;99.90;;;;;;4893015;29;20596;-71
2024/03/19 08:33:56;;;;;;;2.80;2.60;;;6.20;99.90;;;;;;4890793;29;20216;-71
2024/03/19 08:36:22;;;;;;;0.88;0.88;;;6.30;99.90;;;;;;4888640;29;20859;-72
2024/03/19 08:38:49;;;;;;;3.80;3.50;;;6.20;99.90;;;;;;4891397;29;20583;-71
2024/03/19 08:41:16;;;;;;;2.17;2.00;;;6.20;99.90;;;;;;4892283;29;20674;-73
2024/03/19 08:43:49;;;;;;;4.40;2.20;;;6.20;99.90;;;;;;4893212;29;20208;-71
2024/03/19 08:46:16;;;;;;;2.63;2.63;;;6.20;99.90;;;;;;4892248;29;20221;-72
2024/03/19 08:48:43;;;;;;;4.10;2.42;;;6.30;99.90;;;;;;4893535;29;20217;-71
2024/03/19 08:51:10;;;;;;;3.10;2.72;;;6.50;99.90;;;;;;4895864;29;20324;-71
2024/03/19 08:53:36;;;;;;;2.45;2.35;;;6.60;99.90;;;;;;4896611;29;20264;-70
2024/03/19 08:56:03;;;;;;;3.22;3.03;;;6.70;99.90;;;;;;4889557;29;20215;-71
2024/03/19 08:58:30;;;;;;;3.55;2.63;;;6.90;99.90;;;;;;4891549;29;20236;-71
2024/03/19 09:00:58;;;;;;;2.22;2.00;;;7.00;99.90;;;;;;4891202;29;20335;-70
2024/03/19 09:03:25;;;;;;;2.25;2.05;;;7.10;99.90;;;;;;4890395;29;20225;-70
2024/03/19 09:05:56;;;;;;;3.22;3.03;;;7.30;99.90;;;;;;4892499;29;20218;-70
2024/03/19 09:08:23;;;;;;;4.13;3.83;;;7.40;99.90;;;;;;4889961;29;20361;-70
2024/03/19 09:10:52;;;;;;;3.15;2.95;;;7.50;99.90;;;;;;4893501;29;20334;-70
2024/03/19 09:13:18;;;;;;;2.97;2.65;;;7.70;99.90;;;;;;4891005;29;20235;-70
2024/03/19 09:15:46;;;;;;;5.82;4.72;;;7.80;99.90;;;;;;4891069;29;20668;-70
2024/03/19 09:18:14;;;;;;;4.93;4.03;;;8.00;99.90;;;;;;4888322;29;21425;-70
2024/03/19 09:20:40;;;;;;;2.53;2.45;;;7.90;99.90;;;;;;4891865;29;20344;-70
2024/03/19 09:23:07;;;;;;;2.92;2.72;;;8.00;99.90;;;;;;4892290;29;20207;-70
2024/03/19 09:25:34;;;;;;;4.85;3.30;;;8.10;99.90;;;;;;4893906;29;20222;-71
2024/03/19 09:28:01;;;;;;;3.35;3.15;;;8.20;99.90;;;;;;4895042;29;20215;-70
2024/03/19 09:30:28;;;;;;;3.25;2.97;;;8.30;99.90;;;;;;4894164;29;20215;-71
2024/03/19 09:32:55;;;;;;;4.38;3.47;;;8.40;99.90;;;;;;4889452;29;20203;-71
2024/03/19 09:35:23;;;;;;;3.83;3.53;;;8.50;99.90;;;;;;4890255;29;20215;-72
2024/03/19 09:37:50;;;;;;;4.53;3.25;;;8.40;99.90;;;;;;4890484;29;20645;-72
2024/03/19 09:40:16;;;;;;;2.60;2.60;;;8.30;99.90;;;;;;4892132;29;20218;-71
2024/03/19 09:42:43;;;;;;;5.03;3.03;;;8.30;99.90;;;;;;4890125;29;20223;-71
2024/03/19 09:45:25;;;;;;;4.00;3.70;;;8.50;99.90;;;;;;4885932;29;20210;-72
2024/03/19 09:47:52;;;;;;;6.10;3.50;;;8.70;99.90;;;;;;4889280;29;20271;-70
2024/03/19 09:50:19;;;;;;;7.47;5.20;;;8.80;99.90;;;;;;4890618;29;20208;-70
2024/03/19 09:52:49;;;;;;;3.45;3.15;;;8.80;99.90;;;;;;4892197;29;20204;-71
2024/03/19 09:55:16;;;;;;;4.47;3.83;;;8.90;99.90;;;;;;4891012;29;20208;-71
2024/03/19 09:57:45;;;;;;;6.82;4.40;;;9.00;99.90;;;;;;4890948;29;20238;-71
2024/03/19 10:00:22;;;;;;;3.08;2.78;;;9.10;99.90;;;;;;4890782;29;20208;-71
2024/03/19 10:02:50;;;;;;;9.10;6.03;;;9.20;99.90;;;;;;4888955;29;20256;-73
2024/03/19 10:05:17;;;;;;;5.47;4.97;;;9.20;99.90;;;;;;4891445;29;20218;-73
2024/03/19 10:07:44;;;;;;;2.97;2.78;;;9.30;99.90;;;;;;4890482;29;20234;-71
2024/03/19 10:10:15;;;;;;;3.63;3.33;;;9.30;99.90;;;;;;4891262;29;20220;-72
2024/03/19 10:12:42;;;;;;;5.43;3.40;;;9.30;99.90;;;;;;4890228;29;20662;-72
2024/03/19 10:15:17;;;;;;;4.15;3.20;;;9.30;99.90;;;;;;4891370;29;20211;-72
2024/03/19 10:17:43;;;;;;;5.38;3.13;;;9.30;99.90;;;;;;4891104;29;20250;-71
2024/03/19 10:20:11;;;;;;;6.40;3.58;;;9.40;99.90;;;;;;4889745;29;20279;-71
2024/03/19 10:22:38;;;;;;;9.93;4.40;;;9.40;99.90;;;;;;4890622;29;20645;-71
2024/03/19 10:25:05;;;;;;;4.57;3.20;;;9.40;99.90;;;;;;4891050;29;20207;-71
2024/03/19 10:27:34;;;;;;;3.60;3.50;;;9.30;99.90;;;;;;4888245;29;20666;-72
2024/03/19 10:30:02;;;;;;;4.40;3.83;;;9.50;99.90;;;;;;4889760;29;20215;-71
2024/03/19 10:32:29;;;;;;;5.10;4.60;;;9.60;99.90;;;;;;4890657;29;20223;-72
2024/03/19 10:35:00;;;;;;;4.07;3.78;;;9.60;99.90;;;;;;4888617;29;20218;-72
2024/03/19 10:37:27;;;;;;;2.50;2.40;;;9.60;99.90;;;;;;4879579;29;20211;-72
2024/03/19 10:39:55;;;;;;;3.53;2.55;;;9.70;99.90;;;;;;4888435;29;20219;-72
2024/03/19 10:42:22;;;;;;;3.95;3.75;;;9.60;99.90;;;;;;4883466;29;20266;-71
2024/03/19 10:44:50;;;;;;;3.40;3.20;;;9.60;99.90;;;;;;4887607;29;20243;-71
2024/03/19 10:47:17;;;;;;;4.18;3.70;;;9.80;99.90;;;;;;4889422;29;20207;-71
2024/03/19 10:49:44;;;;;;;6.15;3.75;;;9.80;99.90;;;;;;4888493;29;20230;-71
2024/03/19 10:52:17;;;;;;;2.60;2.50;;;9.90;99.90;;;;;;4888753;29;20235;-71
2024/03/19 10:54:47;;;;;;;3.80;3.47;;;9.90;99.90;;;;;;4884214;29;20274;-70
2024/03/19 10:57:17;;;;;;;3.83;3.50;;;9.90;99.90;;;;;;4890040;29;20212;-70
2024/03/19 10:59:44;;;;;;;4.05;3.42;;;10.00;99.90;;;;;;4888046;29;20893;-70
2024/03/19 11:02:17;;;;;;;5.25;4.70;;;10.10;99.90;;;;;;4888475;29;20264;-69
2024/03/19 11:04:44;;;;;;;5.07;4.70;;;10.20;99.90;;;;;;4885792;29;20227;-71
2024/03/19 11:07:23;;;;;;;8.15;5.95;;;10.20;99.90;;;;;;4887981;29;20314;-71
2024/03/19 11:09:52;;;;;;;17.98;8.45;;;10.30;99.90;;;;;;4886935;29;20615;-71
2024/03/19 11:12:22;;;;;;;10.37;6.30;;;10.20;99.90;;;;;;4893376;29;20223;-71
2024/03/19 11:14:55;;;;;;;8.07;5.60;;;10.30;99.90;;;;;;4891538;29;20484;-70
2024/03/19 11:17:27;;;;;;;6.00;4.23;;;10.30;99.90;;;;;;4892240;29;20467;-70
2024/03/19 11:19:55;;;;;;;4.80;4.40;;;10.50;99.90;;;;;;4892230;29;20554;-71
2024/03/19 11:22:22;;;;;;;5.33;3.23;;;10.60;99.90;;;;;;4896032;29;20548;-70
2024/03/19 11:24:51;;;;;;;7.93;5.50;;;10.70;99.90;;;;;;4895281;29;20479;-70
2024/03/19 11:27:18;;;;;;;4.93;2.73;;;10.70;99.90;;;;;;4889658;29;20259;-70
2024/03/19 11:29:46;;;;;;;4.37;4.03;;;10.70;99.90;;;;;;4893461;29;20479;-69
2024/03/19 11:32:22;;;;;;;5.20;4.70;;;10.80;99.90;;;;;;4895601;29;20807;-70
2024/03/19 11:34:51;;;;;;;3.97;3.67;;;10.80;99.90;;;;;;4891151;29;20482;-70
2024/03/19 11:37:17;;;;;;;6.60;4.50;;;10.80;99.90;;;;;;4893090;29;20551;-69
2024/03/19 11:39:44;;;;;;;3.03;2.80;;;10.90;99.90;;;;;;4895378;29;20534;-69
2024/03/19 11:42:12;;;;;;;4.83;4.43;;;11.00;99.90;;;;;;4892656;29;20491;-71
2024/03/19 11:44:39;;;;;;;7.03;6.33;;;11.00;99.90;;;;;;4889973;29;20482;-72
2024/03/19 11:47:06;;;;;;;6.60;5.13;;;11.00;99.90;;;;;;4889846;29;20479;-68
2024/03/19 11:49:33;;;;;;;4.77;4.37;;;10.90;99.90;;;;;;4896245;29;20475;-67
2024/03/19 11:52:02;;;;;;;4.77;4.37;;;10.90;99.90;;;;;;4893844;29;20487;-67
2024/03/19 11:54:29;;;;;;;6.30;5.70;;;11.00;99.90;;;;;;4896093;29;20470;-68
2024/03/19 11:56:57;;;;;;;4.90;4.50;;;11.10;99.90;;;;;;4890713;29;20951;-67
2024/03/19 11:59:24;;;;;;;3.43;3.17;;;11.20;99.90;;;;;;4888321;29;20928;-68
2024/03/19 12:01:52;;;;;;;4.53;4.13;;;11.30;99.90;;;;;;4891610;29;20502;-68
2024/03/19 12:04:19;;;;;;;9.70;5.80;;;11.40;99.90;;;;;;4891020;29;20467;-68
2024/03/19 12:06:46;;;;;;;6.10;5.50;;;11.60;99.90;;;;;;4896587;29;20467;-69
2024/03/19 12:09:14;;;;;;;7.20;6.40;;;11.60;99.90;;;;;;4889071;29;20939;-68
2024/03/19 12:11:41;;;;;;;9.80;5.77;;;11.60;99.90;;;;;;4889483;29;20502;-72
2024/03/19 12:14:13;;;;;;;6.30;5.47;;;11.50;99.90;;;;;;4889243;29;20479;-73
2024/03/19 12:16:40;;;;;;;6.30;5.03;;;11.50;99.90;;;;;;4893536;29;20495;-72
2024/03/19 12:19:10;;;;;;;8.50;7.07;;;11.50;99.90;;;;;;4895456;29;20486;-72
2024/03/19 12:21:40;;;;;;;5.83;5.20;;;11.70;99.90;;;;;;4889352;29;20854;-72
2024/03/19 12:24:09;;;;;;;4.63;4.13;;;11.70;99.90;;;;;;4893232;29;20483;-72
2024/03/19 12:26:38;;;;;;;4.10;3.90;;;11.80;99.90;;;;;;4895215;29;20486;-72
2024/03/19 12:29:06;;;;;;;7.53;5.00;;;12.00;99.90;;;;;;4893124;29;20482;-72
2024/03/19 12:31:36;;;;;;;7.00;5.50;;;12.20;99.90;;;;;;4893856;29;20495;-73
2024/03/19 12:34:16;;;;;;;7.37;5.60;;;12.20;99.90;;;;;;4885202;29;20487;-73
2024/03/19 12:36:44;;;;;;;4.57;4.20;;;12.20;99.90;;;;;;4892306;29;20475;-72
2024/03/19 12:39:12;;;;;;;7.37;5.70;;;12.30;99.90;;;;;;4886979;29;20942;-72
2024/03/19 12:41:40;;;;;;;7.00;3.97;;;12.30;99.90;;;;;;4892048;29;20575;-73
2024/03/19 12:44:08;;;;;;;5.80;4.80;;;12.40;99.90;;;;;;4891050;29;20503;-72
2024/03/19 12:46:36;;;;;;;2.37;2.17;;;12.40;99.90;;;;;;4891614;29;20475;-72
2024/03/19 12:49:03;;;;;;;4.37;3.80;;;12.30;99.90;;;;;;4892491;29;21014;-72
2024/03/19 12:51:29;;;;;;;2.70;2.13;;;12.10;99.90;;;;;;4893669;29;20518;-72
2024/03/19 12:53:56;;;;;;;5.83;4.80;;;12.00;99.90;;;;;;4893975;29;20499;-73
2024/03/19 12:56:23;;;;;;;3.67;3.37;;;12.00;99.90;;;;;;4893578;29;20482;-72
2024/03/19 12:58:51;;;;;;;5.50;5.10;;;12.10;99.90;;;;;;4891817;29;20479;-72
2024/03/19 13:01:18;;;;;;;8.27;5.03;;;12.20;99.90;;;;;;4889331;29;21068;-72
2024/03/19 13:03:45;;;;;;;4.20;3.40;;;12.30;99.90;;;;;;4889665;29;20497;-73
2024/03/19 13:06:12;;;;;;;3.90;3.57;;;12.40;99.90;;;;;;4890103;29;20546;-72
2024/03/19 13:08:38;;;;;;;5.30;4.50;;;12.40;99.90;;;;;;4891800;29;20479;-73
2024/03/19 13:11:05;;;;;;;7.33;4.33;;;12.50;99.90;;;;;;4893560;29;20839;-72
2024/03/19 13:13:32;;;;;;;5.30;4.80;;;12.50;99.90;;;;;;4892159;29;20523;-72
2024/03/19 13:16:00;;;;;;;4.73;4.30;;;12.60;99.90;;;;;;4890296;29;20470;-72
2024/03/19 13:18:27;;;;;;;9.43;4.50;;;12.50;99.90;;;;;;4893100;29;20475;-72
2024/03/19 13:20:53;;;;;;;3.37;3.07;;;12.50;99.90;;;;;;4896090;29;21030;-72
2024/03/19 13:23:20;;;;;;;6.33;4.03;;;12.50;99.90;;;;;;4890248;29;20491;-73
2024/03/19 13:25:47;;;;;;;5.30;4.07;;;12.60;99.90;;;;;;4892521;29;20472;-73
2024/03/19 13:28:14;;;;;;;5.97;4.23;;;12.60;99.90;;;;;;4886205;29;20933;-72
2024/03/19 13:30:41;;;;;;;4.00;3.70;;;12.70;99.90;;;;;;4886110;29;20499;-71
2024/03/19 13:33:09;;;;;;;11.70;6.77;;;12.50;99.90;;;;;;4888156;29;20464;-72
2024/03/19 13:35:36;;;;;;;7.53;5.27;;;12.50;99.90;;;;;;4890103;29;20478;-73
2024/03/19 13:38:03;;;;;;;3.53;3.33;;;12.60;99.90;;;;;;4889955;29;20491;-72
2024/03/19 13:40:32;;;;;;;5.13;4.80;;;12.70;99.90;;;;;;4890653;29;20475;-73
2024/03/19 13:42:58;;;;;;;7.47;6.87;;;12.70;99.90;;;;;;4890724;29;20538;-72
2024/03/19 13:45:25;;;;;;;7.13;5.33;;;12.90;99.90;;;;;;4891076;29;20479;-73
2024/03/19 13:47:52;;;;;;;4.73;4.20;;;13.10;99.90;;;;;;4889305;29;20569;-73
2024/03/19 13:50:20;;;;;;;4.33;4.03;;;13.10;99.90;;;;;;4891972;29;20483;-73
2024/03/19 13:52:48;;;;;;;8.90;4.57;;;13.20;99.90;;;;;;4891878;29;20817;-73
2024/03/19 13:55:16;;;;;;;7.33;5.07;;;13.30;99.90;;;;;;4891216;29;20896;-72
2024/03/19 13:57:42;;;;;;;6.00;5.03;;;13.30;99.90;;;;;;4891316;29;20487;-72
2024/03/19 14:00:15;;;;;;;8.50;5.13;;;13.20;99.90;;;;;;4892324;29;20482;-71
2024/03/19 14:02:42;;;;;;;6.13;5.30;;;13.30;99.90;;;;;;4890567;29;20526;-72
2024/03/19 14:05:10;;;;;;;9.40;6.27;;;13.40;99.90;;;;;;4891343;29;20475;-70
2024/03/19 14:07:38;;;;;;;8.53;5.70;;;13.40;99.90;;;;;;4892011;29;20483;-70
2024/03/19 14:10:06;;;;;;;8.03;5.30;;;13.40;99.90;;;;;;4891767;29;20881;-70
2024/03/19 14:12:34;;;;;;;4.20;3.53;;;13.30;99.90;;;;;;4892110;29;20491;-70
2024/03/19 14:15:02;;;;;;;6.30;4.10;;;13.20;99.90;;;;;;4890464;29;20853;-71
2024/03/19 14:17:28;;;;;;;9.37;4.90;;;13.20;99.90;;;;;;4890828;29;20479;-70
2024/03/19 14:19:55;;;;;;;5.57;5.07;;;13.20;99.90;;;;;;4892785;29;20473;-71
2024/03/19 14:22:22;;;;;;;5.77;5.13;;;13.10;99.90;;;;;;4893491;29;20488;-71
2024/03/19 14:24:50;;;;;;;3.80;3.50;;;13.10;99.90;;;;;;4892826;29;20529;-71
2024/03/19 14:27:17;;;;;;;13.40;5.87;;;13.10;99.90;;;;;;4892793;29;20565;-70
2024/03/19 14:29:44;;;;;;;7.00;5.43;;;13.10;99.90;;;;;;4891881;29;20472;-70
2024/03/19 14:32:10;;;;;;;5.17;4.67;;;13.00;99.90;;;;;;4885763;29;20503;-70
2024/03/19 14:34:37;;;;;;;5.70;4.40;;;13.00;99.90;;;;;;4888138;29;20472;-70
2024/03/19 14:37:04;;;;;;;6.00;5.40;;;13.10;99.90;;;;;;4892086;29;20478;-70
2024/03/19 14:39:31;;;;;;;9.40;5.70;;;13.10;99.90;;;;;;4890045;29;20490;-70
2024/03/19 14:41:59;;;;;;;8.07;6.17;;;13.00;99.90;;;;;;4888506;29;20499;-72
2024/03/19 14:44:26;;;;;;;6.13;5.53;;;12.90;99.90;;;;;;4890988;29;20958;-70
2024/03/19 14:46:58;;;;;;;11.90;8.53;;;12.80;99.90;;;;;;4893850;29;20477;-72
2024/03/19 14:49:26;;;;;;;8.83;6.87;;;12.60;99.90;;;;;;4894690;29;20542;-72
2024/03/19 14:51:54;;;;;;;8.73;5.87;;;12.50;99.90;;;;;;4896723;29;20495;-72
2024/03/19 14:54:21;;;;;;;8.67;5.30;;;12.50;99.90;;;;;;4892753;29;21018;-70
2024/03/19 14:56:49;;;;;;;11.50;5.53;;;12.60;99.90;;;;;;4894615;29;21118;-72
2024/03/19 14:59:17;;;;;;;4.90;4.50;;;12.60;99.90;;;;;;4893813;29;20566;-72
2024/03/19 15:01:44;;;;;;;5.33;4.80;;;12.60;99.90;;;;;;4894091;29;21013;-71
2024/03/19 15:04:11;;;;;;;5.27;4.77;;;12.50;99.90;;;;;;4887749;29;20518;-69
2024/03/19 15:06:38;;;;;;;5.50;4.90;;;12.50;99.90;;;;;;4896760;29;20479;-71
2024/03/19 15:09:07;;;;;;;16.67;6.07;;;12.60;99.90;;;;;;4890541;29;20494;-71
2024/03/19 15:11:33;;;;;;;4.87;4.30;;;12.50;99.90;;;;;;4896613;29;20495;-70
2024/03/19 15:14:00;;;;;;;8.47;4.70;;;12.60;99.90;;;;;;4891047;29;20478;-70
2024/03/19 15:16:28;;;;;;;6.43;5.43;;;12.60;99.90;;;;;;4896211;29;20966;-70
2024/03/19 15:18:55;;;;;;;7.37;5.10;;;12.70;99.90;;;;;;4895247;29;20475;-70
2024/03/19 15:21:21;;;;;;;6.43;4.93;;;12.70;99.90;;;;;;4896465;29;20505;-70
2024/03/19 15:23:48;;;;;;;8.53;5.70;;;12.70;99.90;;;;;;4893608;29;20491;-70
2024/03/19 15:26:15;;;;;;;10.00;5.10;;;12.80;99.90;;;;;;4892793;29;20506;-70
2024/03/19 15:28:42;;;;;;;5.90;5.33;;;12.80;99.90;;;;;;4893935;29;20475;-70
2024/03/19 15:31:09;;;;;;;5.20;4.40;;;12.70;99.90;;;;;;4895265;29;20534;-70
2024/03/19 15:33:37;;;;;;;9.30;5.30;;;12.70;99.90;;;;;;4890618;29;20460;-70
2024/03/19 15:36:04;;;;;;;8.10;5.30;;;12.80;99.90;;;;;;4893584;29;20471;-72
2024/03/19 15:38:31;;;;;;;6.87;5.07;;;12.80;99.90;;;;;;4895800;29;20475;-72
2024/03/19 15:40:58;;;;;;;6.00;4.60;;;12.70;99.90;;;;;;4894308;29;20868;-71
2024/03/19 15:43:25;;;;;;;7.33;5.13;;;12.80;99.90;;;;;;4893199;29;20495;-70
2024/03/19 15:45:51;;;;;;;5.50;4.93;;;12.80;99.90;;;;;;4890387;29;20498;-70
2024/03/19 15:48:18;;;;;;;4.20;3.50;;;12.70;99.90;;;;;;4889051;29;20474;-69
2024/03/19 15:50:46;;;;;;;6.37;5.53;;;12.70;99.90;;;;;;4893739;29;20562;-71
2024/03/19 15:53:13;;;;;;;5.40;4.90;;;12.70;99.90;;;;;;4894863;29;20488;-70
2024/03/19 15:55:39;;;;;;;8.00;6.03;;;12.60;99.90;;;;;;4894294;29;20984;-71
2024/03/19 15:58:06;;;;;;;4.47;4.07;;;12.60;99.90;;;;;;4894580;29;20479;-70
2024/03/19 16:00:33;;;;;;;6.93;5.50;;;12.60;99.90;;;;;;4891650;29;20500;-71
2024/03/19 16:03:01;;;;;;;5.40;4.90;;;12.60;99.90;;;;;;4891118;29;20603;-70
2024/03/19 16:05:28;;;;;;;5.07;4.40;;;12.60;99.90;;;;;;4891794;29;20891;-70
2024/03/19 16:07:58;;;;;;;6.00;4.93;;;12.60;99.90;;;;;;4892190;29;20671;-71
2024/03/19 16:10:25;;;;;;;5.73;5.30;;;12.60;99.90;;;;;;4891051;29;20498;-70
2024/03/19 16:12:54;;;;;;;4.23;3.87;;;12.50;99.90;;;;;;4884204;29;20495;-70
2024/03/19 16:15:21;;;;;;;4.77;4.37;;;12.60;99.90;;;;;;4891911;29;20486;-70
2024/03/19 16:17:48;;;;;;;5.97;5.10;;;12.50;99.90;;;;;;4895176;29;20923;-70
2024/03/19 16:20:15;;;;;;;4.60;3.83;;;12.40;99.90;;;;;;4889876;29;20471;-70
2024/03/19 16:22:42;;;;;;;5.43;4.60;;;12.40;99.90;;;;;;4892642;29;20475;-70
2024/03/19 16:25:10;;;;;;;5.03;4.40;;;12.30;99.90;;;;;;4893014;29;20483;-71
2024/03/19 16:27:37;;;;;;;5.70;5.17;;;12.30;99.90;;;;;;4891101;29;20507;-70
2024/03/19 16:30:05;;;;;;;5.30;4.70;;;12.30;99.90;;;;;;4889759;29;20563;-70
2024/03/19 16:32:32;;;;;;;3.63;3.33;;;12.20;99.90;;;;;;4893181;29;20514;-70
2024/03/19 16:34:58;;;;;;;3.47;3.17;;;12.20;99.90;;;;;;4892524;29;20474;-70
2024/03/19 16:37:25;;;;;;;7.30;5.57;;;12.20;99.90;;;;;;4893294;29;20475;-71
2024/03/19 16:39:52;;;;;;;5.47;4.93;;;12.20;99.90;;;;;;4889462;29;20475;-71
2024/03/19 16:42:20;;;;;;;5.97;5.37;;;12.20;99.90;;;;;;4883803;29;20526;-71
2024/03/19 16:44:48;;;;;;;19.37;9.20;;;12.20;99.90;;;;;;4881991;29;20999;-71
2024/03/19 16:47:14;;;;;;;4.50;4.20;;;12.10;99.90;;;;;;4887759;29;20507;-71
2024/03/19 16:49:41;;;;;;;5.97;5.37;;;12.00;99.90;;;;;;4888341;29;20566;-71
2024/03/19 16:52:10;;;;;;;6.50;4.90;;;12.00;99.90;;;;;;4890091;29;20499;-71
2024/03/19 16:54:37;;;;;;;6.40;5.80;;;12.00;99.90;;;;;;4891515;29;20830;-71
2024/03/19 16:57:04;;;;;;;8.00;4.40;;;12.00;99.90;;;;;;4888767;29;20482;-71
2024/03/19 16:59:32;;;;;;;8.23;5.53;;;12.00;99.90;;;;;;4893800;29;20550;-71
2024/03/19 17:01:59;;;;;;;6.60;4.93;;;11.90;99.90;;;;;;4890595;29;21010;-71
2024/03/19 17:04:26;;;;;;;5.50;4.60;;;11.90;99.90;;;;;;4892327;29;20491;-71
2024/03/19 17:06:52;;;;;;;6.03;5.53;;;11.90;99.90;;;;;;4893391;29;20498;-71
2024/03/19 17:09:19;;;;;;;5.13;4.60;;;11.80;99.90;;;;;;4888570;29;20502;-71
2024/03/19 17:11:46;;;;;;;4.27;3.87;;;11.80;99.90;;;;;;4892723;29;20499;-69
2024/03/19 17:14:15;;;;;;;3.97;3.67;;;11.80;99.90;;;;;;4891991;29;20466;-69
2024/03/19 17:16:43;;;;;;;6.17;3.73;;;11.80;99.90;;;;;;4894245;29;20973;-69
2024/03/19 17:19:10;;;;;;;7.70;4.30;;;11.70;99.90;;;;;;4888452;29;20476;-70
2024/03/19 17:21:37;;;;;;;7.43;4.00;;;11.70;99.90;;;;;;4886615;29;20852;-70
2024/03/19 17:24:04;;;;;;;4.47;3.60;;;11.70;99.90;;;;;;4888101;29;20553;-69
2024/03/19 17:26:30;;;;;;;7.23;5.20;;;11.70;99.90;;;;;;4891556;29;20471;-70
2024/03/19 17:28:57;;;;;;;6.53;5.80;;;11.70;99.90;;;;;;4891912;29;20471;-69
2024/03/19 17:31:24;;;;;;;9.90;5.88;;;11.70;99.90;;;;;;4894205;29;20511;-69
2024/03/19 17:33:52;;;;;;;3.40;3.00;;;11.60;99.90;;;;;;4893326;29;20211;-69
2024/03/19 17:36:19;;;;;;;7.90;6.00;;;11.70;99.90;;;;;;4888932;29;20979;-69
2024/03/19 17:38:46;;;;;;;10.83;5.67;;;11.60;99.90;;;;;;4894114;29;20466;-71
2024/03/19 17:41:13;;;;;;;3.92;3.55;;;11.60;99.90;;;;;;4893386;29;20487;-71
2024/03/19 17:43:40;;;;;;;8.60;6.03;;;11.60;99.90;;;;;;4894624;29;20230;-70
2024/03/19 17:46:06;;;;;;;5.70;4.95;;;11.60;99.90;;;;;;4894345;29;20550;-70
2024/03/19 17:48:33;;;;;;;12.00;4.85;;;11.50;99.90;;;;;;4893706;29;20207;-70
2024/03/19 17:51:01;;;;;;;7.33;4.70;;;11.50;99.90;;;;;;4889769;29;20246;-70